sensor_id;sensor_type;location;lat;lon;timestamp;P1;durP1;ratioP1;P2;durP2;ratioP2
40471;SDS011;26174;42.908;23.800;2022-11-20T00:01:45;35.83;;;18.45;;
40471;SDS011;26174;42.908;23.800;2022-11-20T00:04:10;40.10;;;20.58;;
40471;SDS011;26174;42.908;23.800;2022-11-20T00:06:37;35.17;;;17.08;;
40471;SDS011;26174;42.908;23.800;2022-11-20T00:09:02;34.95;;;16.60;;
40471;SDS011;26174;42.908;23.800;2022-11-20T00:11:30;31.45;;;15.38;;
40471;SDS011;26174;42.908;23.800;2022-11-20T00:13:57;26.77;;;13.45;;
40471;SDS011;26174;42.908;23.800;2022-11-20T00:16:25;27.00;;;12.40;;
40471;SDS011;26174;42.908;23.800;2022-11-20T00:18:52;25.95;;;11.30;;
40471;SDS011;26174;42.908;23.800;2022-11-20T00:21:22;27.75;;;12.88;;
40471;SDS011;26174;42.908;23.800;2022-11-20T00:23:50;35.35;;;13.77;;
40471;SDS011;26174;42.908;23.800;2022-11-20T00:26:17;27.52;;;14.02;;
40471;SDS011;26174;42.908;23.800;2022-11-20T00:28:44;36.28;;;15.32;;
40471;SDS011;26174;42.908;23.800;2022-11-20T00:31:15;35.85;;;16.45;;
40471;SDS011;26174;42.908;23.800;2022-11-20T00:33:41;43.58;;;20.80;;
40471;SDS011;26174;42.908;23.800;2022-11-20T00:36:12;44.85;;;20.48;;
40471;SDS011;26174;42.908;23.800;2022-11-20T00:38:41;39.60;;;17.88;;
40471;SDS011;26174;42.908;23.800;2022-11-20T00:41:08;50.63;;;24.17;;
40471;SDS011;26174;42.908;23.800;2022-11-20T00:43:36;38.25;;;19.05;;
40471;SDS011;26174;42.908;23.800;2022-11-20T00:46:07;37.58;;;18.52;;
40471;SDS011;26174;42.908;23.800;2022-11-20T00:48:34;40.72;;;18.50;;
40471;SDS011;26174;42.908;23.800;2022-11-20T00:50:59;50.08;;;23.25;;
40471;SDS011;26174;42.908;23.800;2022-11-20T00:53:25;41.80;;;19.30;;
40471;SDS011;26174;42.908;23.800;2022-11-20T00:55:55;37.65;;;18.17;;
40471;SDS011;26174;42.908;23.800;2022-11-20T00:58:21;37.58;;;17.92;;
40471;SDS011;26174;42.908;23.800;2022-11-20T01:00:48;39.50;;;17.00;;
40471;SDS011;26174;42.908;23.800;2022-11-20T01:03:14;31.23;;;15.52;;
40471;SDS011;26174;42.908;23.800;2022-11-20T01:05:41;27.33;;;14.88;;
40471;SDS011;26174;42.908;23.800;2022-11-20T01:08:07;30.23;;;15.48;;
40471;SDS011;26174;42.908;23.800;2022-11-20T01:10:32;29.80;;;14.95;;
40471;SDS011;26174;42.908;23.800;2022-11-20T01:12:58;27.25;;;13.63;;
40471;SDS011;26174;42.908;23.800;2022-11-20T01:15:42;33.22;;;13.80;;
40471;SDS011;26174;42.908;23.800;2022-11-20T01:18:07;28.27;;;14.85;;
40471;SDS011;26174;42.908;23.800;2022-11-20T01:20:36;45.42;;;21.45;;
40471;SDS011;26174;42.908;23.800;2022-11-20T01:23:02;44.10;;;19.90;;
40471;SDS011;26174;42.908;23.800;2022-11-20T01:25:28;30.95;;;16.05;;
40471;SDS011;26174;42.908;23.800;2022-11-20T01:27:54;29.92;;;15.30;;
40471;SDS011;26174;42.908;23.800;2022-11-20T01:30:20;32.10;;;15.70;;
40471;SDS011;26174;42.908;23.800;2022-11-20T01:32:45;28.75;;;15.55;;
40471;SDS011;26174;42.908;23.800;2022-11-20T01:35:13;36.88;;;18.88;;
40471;SDS011;26174;42.908;23.800;2022-11-20T01:37:39;27.75;;;14.55;;
40471;SDS011;26174;42.908;23.800;2022-11-20T01:40:04;28.90;;;15.25;;
40471;SDS011;26174;42.908;23.800;2022-11-20T01:42:30;27.67;;;14.65;;
40471;SDS011;26174;42.908;23.800;2022-11-20T01:51:00;31.13;;;14.20;;
40471;SDS011;26174;42.908;23.800;2022-11-20T01:53:28;28.92;;;15.23;;
40471;SDS011;26174;42.908;23.800;2022-11-20T01:55:57;31.80;;;15.40;;
40471;SDS011;26174;42.908;23.800;2022-11-20T01:58:26;32.92;;;15.32;;
40471;SDS011;26174;42.908;23.800;2022-11-20T02:00:54;30.88;;;14.55;;
40471;SDS011;26174;42.908;23.800;2022-11-20T02:03:20;33.58;;;15.07;;
40471;SDS011;26174;42.908;23.800;2022-11-20T02:05:47;34.80;;;17.08;;
40471;SDS011;26174;42.908;23.800;2022-11-20T02:08:16;35.33;;;14.60;;
40471;SDS011;26174;42.908;23.800;2022-11-20T02:10:43;30.73;;;14.85;;
40471;SDS011;26174;42.908;23.800;2022-11-20T02:13:08;25.48;;;13.85;;
40471;SDS011;26174;42.908;23.800;2022-11-20T02:15:53;34.20;;;14.15;;
40471;SDS011;26174;42.908;23.800;2022-11-20T02:18:19;28.65;;;15.23;;
40471;SDS011;26174;42.908;23.800;2022-11-20T02:20:46;27.55;;;14.13;;
40471;SDS011;26174;42.908;23.800;2022-11-20T02:23:23;30.63;;;14.23;;
40471;SDS011;26174;42.908;23.800;2022-11-20T02:25:50;26.65;;;13.20;;
40471;SDS011;26174;42.908;23.800;2022-11-20T02:28:16;22.05;;;13.05;;
40471;SDS011;26174;42.908;23.800;2022-11-20T02:30:42;30.85;;;12.75;;
40471;SDS011;26174;42.908;23.800;2022-11-20T02:33:08;20.08;;;11.10;;
40471;SDS011;26174;42.908;23.800;2022-11-20T02:38:00;22.30;;;10.30;;
40471;SDS011;26174;42.908;23.800;2022-11-20T02:40:27;19.60;;;10.90;;
40471;SDS011;26174;42.908;23.800;2022-11-20T02:42:55;25.20;;;12.10;;
40471;SDS011;26174;42.908;23.800;2022-11-20T02:45:21;22.73;;;11.30;;
40471;SDS011;26174;42.908;23.800;2022-11-20T02:47:50;19.98;;;9.98;;
40471;SDS011;26174;42.908;23.800;2022-11-20T02:50:16;26.67;;;10.48;;
40471;SDS011;26174;42.908;23.800;2022-11-20T02:52:42;18.00;;;10.43;;
40471;SDS011;26174;42.908;23.800;2022-11-20T02:55:08;21.63;;;10.93;;
40471;SDS011;26174;42.908;23.800;2022-11-20T02:57:33;20.23;;;9.77;;
40471;SDS011;26174;42.908;23.800;2022-11-20T02:59:59;17.58;;;10.02;;
40471;SDS011;26174;42.908;23.800;2022-11-20T03:02:25;18.98;;;10.25;;
40471;SDS011;26174;42.908;23.800;2022-11-20T03:04:50;18.35;;;10.02;;
40471;SDS011;26174;42.908;23.800;2022-11-20T03:07:16;19.10;;;8.65;;
40471;SDS011;26174;42.908;23.800;2022-11-20T03:09:41;15.38;;;9.15;;
40471;SDS011;26174;42.908;23.800;2022-11-20T03:12:07;14.52;;;8.65;;
40471;SDS011;26174;42.908;23.800;2022-11-20T03:14:32;17.20;;;9.57;;
40471;SDS011;26174;42.908;23.800;2022-11-20T03:16:58;15.73;;;9.30;;
40471;SDS011;26174;42.908;23.800;2022-11-20T03:19:24;17.00;;;8.90;;
40471;SDS011;26174;42.908;23.800;2022-11-20T03:21:49;15.15;;;8.77;;
40471;SDS011;26174;42.908;23.800;2022-11-20T03:24:15;19.83;;;8.82;;
40471;SDS011;26174;42.908;23.800;2022-11-20T03:26:40;17.05;;;9.18;;
40471;SDS011;26174;42.908;23.800;2022-11-20T03:29:06;15.45;;;8.50;;
40471;SDS011;26174;42.908;23.800;2022-11-20T03:31:33;18.88;;;9.55;;
40471;SDS011;26174;42.908;23.800;2022-11-20T03:34:01;18.35;;;9.68;;
40471;SDS011;26174;42.908;23.800;2022-11-20T03:36:27;19.35;;;9.52;;
40471;SDS011;26174;42.908;23.800;2022-11-20T03:38:54;14.70;;;8.48;;
40471;SDS011;26174;42.908;23.800;2022-11-20T03:41:24;19.73;;;8.93;;
40471;SDS011;26174;42.908;23.800;2022-11-20T03:43:52;16.38;;;8.85;;
40471;SDS011;26174;42.908;23.800;2022-11-20T03:46:19;16.05;;;9.02;;
40471;SDS011;26174;42.908;23.800;2022-11-20T03:48:45;19.20;;;9.40;;
40471;SDS011;26174;42.908;23.800;2022-11-20T03:53:38;16.25;;;8.85;;
40471;SDS011;26174;42.908;23.800;2022-11-20T03:56:04;15.07;;;8.20;;
40471;SDS011;26174;42.908;23.800;2022-11-20T03:58:32;13.65;;;7.55;;
40471;SDS011;26174;42.908;23.800;2022-11-20T04:01:03;12.10;;;7.07;;
40471;SDS011;26174;42.908;23.800;2022-11-20T04:03:33;11.68;;;6.63;;
40471;SDS011;26174;42.908;23.800;2022-11-20T04:06:06;13.27;;;6.55;;
40471;SDS011;26174;42.908;23.800;2022-11-20T04:08:33;11.82;;;6.38;;
40471;SDS011;26174;42.908;23.800;2022-11-20T04:13:48;11.60;;;6.00;;
40471;SDS011;26174;42.908;23.800;2022-11-20T04:16:15;12.07;;;6.78;;
40471;SDS011;26174;42.908;23.800;2022-11-20T04:18:41;13.13;;;7.72;;
40471;SDS011;26174;42.908;23.800;2022-11-20T04:21:07;9.63;;;6.30;;
40471;SDS011;26174;42.908;23.800;2022-11-20T04:23:33;11.05;;;6.65;;
40471;SDS011;26174;42.908;23.800;2022-11-20T04:26:02;11.80;;;7.00;;
40471;SDS011;26174;42.908;23.800;2022-11-20T04:28:29;13.82;;;7.10;;
40471;SDS011;26174;42.908;23.800;2022-11-20T04:31:01;14.60;;;6.90;;
40471;SDS011;26174;42.908;23.800;2022-11-20T04:33:31;22.05;;;10.32;;
40471;SDS011;26174;42.908;23.800;2022-11-20T04:36:00;12.90;;;7.22;;
40471;SDS011;26174;42.908;23.800;2022-11-20T04:38:30;16.38;;;8.00;;
40471;SDS011;26174;42.908;23.800;2022-11-20T04:40:59;22.00;;;11.80;;
40471;SDS011;26174;42.908;23.800;2022-11-20T04:43:25;23.00;;;10.82;;
40471;SDS011;26174;42.908;23.800;2022-11-20T04:45:52;22.17;;;11.70;;
40471;SDS011;26174;42.908;23.800;2022-11-20T04:48:18;25.13;;;12.68;;
40471;SDS011;26174;42.908;23.800;2022-11-20T04:50:44;21.88;;;11.15;;
40471;SDS011;26174;42.908;23.800;2022-11-20T04:53:09;17.35;;;10.40;;
40471;SDS011;26174;42.908;23.800;2022-11-20T04:55:35;28.13;;;10.82;;
40471;SDS011;26174;42.908;23.800;2022-11-20T04:58:00;18.85;;;10.15;;
40471;SDS011;26174;42.908;23.800;2022-11-20T05:00:26;22.73;;;11.60;;
40471;SDS011;26174;42.908;23.800;2022-11-20T05:02:52;25.17;;;13.02;;
40471;SDS011;26174;42.908;23.800;2022-11-20T05:05:17;18.92;;;8.93;;
40471;SDS011;26174;42.908;23.800;2022-11-20T05:07:43;13.98;;;8.32;;
40471;SDS011;26174;42.908;23.800;2022-11-20T05:10:09;14.65;;;8.48;;
40471;SDS011;26174;42.908;23.800;2022-11-20T05:12:34;17.25;;;9.40;;
40471;SDS011;26174;42.908;23.800;2022-11-20T05:15:00;23.25;;;11.85;;
40471;SDS011;26174;42.908;23.800;2022-11-20T05:17:25;17.98;;;10.27;;
40471;SDS011;26174;42.908;23.800;2022-11-20T05:19:51;13.85;;;7.35;;
40471;SDS011;26174;42.908;23.800;2022-11-20T05:22:16;14.65;;;9.35;;
40471;SDS011;26174;42.908;23.800;2022-11-20T05:24:42;16.88;;;9.65;;
40471;SDS011;26174;42.908;23.800;2022-11-20T05:27:07;14.80;;;8.73;;
40471;SDS011;26174;42.908;23.800;2022-11-20T05:29:33;16.20;;;8.90;;
40471;SDS011;26174;42.908;23.800;2022-11-20T05:31:58;19.42;;;8.32;;
40471;SDS011;26174;42.908;23.800;2022-11-20T05:34:24;16.08;;;8.63;;
40471;SDS011;26174;42.908;23.800;2022-11-20T05:36:49;19.55;;;8.85;;
40471;SDS011;26174;42.908;23.800;2022-11-20T05:39:15;19.50;;;9.55;;
40471;SDS011;26174;42.908;23.800;2022-11-20T05:41:40;18.10;;;8.77;;
40471;SDS011;26174;42.908;23.800;2022-11-20T05:44:06;17.80;;;9.40;;
40471;SDS011;26174;42.908;23.800;2022-11-20T05:46:31;22.38;;;9.57;;
40471;SDS011;26174;42.908;23.800;2022-11-20T05:48:57;18.98;;;9.73;;
40471;SDS011;26174;42.908;23.800;2022-11-20T05:51:23;17.67;;;9.00;;
40471;SDS011;26174;42.908;23.800;2022-11-20T05:53:49;21.25;;;10.45;;
40471;SDS011;26174;42.908;23.800;2022-11-20T05:56:16;17.92;;;9.55;;
40471;SDS011;26174;42.908;23.800;2022-11-20T05:58:45;20.45;;;10.43;;
40471;SDS011;26174;42.908;23.800;2022-11-20T06:03:44;21.73;;;10.05;;
40471;SDS011;26174;42.908;23.800;2022-11-20T06:06:13;21.52;;;10.38;;
40471;SDS011;26174;42.908;23.800;2022-11-20T06:08:47;17.25;;;9.52;;
40471;SDS011;26174;42.908;23.800;2022-11-20T06:11:13;28.25;;;14.77;;
40471;SDS011;26174;42.908;23.800;2022-11-20T06:13:39;38.50;;;18.13;;
40471;SDS011;26174;42.908;23.800;2022-11-20T06:16:05;33.83;;;17.25;;
40471;SDS011;26174;42.908;23.800;2022-11-20T06:18:32;26.35;;;12.70;;
40471;SDS011;26174;42.908;23.800;2022-11-20T06:23:28;36.38;;;18.25;;
40471;SDS011;26174;42.908;23.800;2022-11-20T06:25:56;31.05;;;13.05;;
40471;SDS011;26174;42.908;23.800;2022-11-20T06:28:22;26.45;;;13.80;;
40471;SDS011;26174;42.908;23.800;2022-11-20T06:30:48;31.77;;;15.70;;
40471;SDS011;26174;42.908;23.800;2022-11-20T06:33:13;30.48;;;13.77;;
40471;SDS011;26174;42.908;23.800;2022-11-20T06:35:39;158.38;;;80.65;;
40471;SDS011;26174;42.908;23.800;2022-11-20T06:38:04;34.30;;;17.67;;
40471;SDS011;26174;42.908;23.800;2022-11-20T06:40:30;38.58;;;18.98;;
40471;SDS011;26174;42.908;23.800;2022-11-20T06:42:56;27.30;;;14.15;;
40471;SDS011;26174;42.908;23.800;2022-11-20T06:45:21;28.67;;;13.65;;
40471;SDS011;26174;42.908;23.800;2022-11-20T06:47:47;31.60;;;16.38;;
40471;SDS011;26174;42.908;23.800;2022-11-20T06:50:12;31.60;;;14.27;;
40471;SDS011;26174;42.908;23.800;2022-11-20T06:52:38;27.80;;;13.48;;
40471;SDS011;26174;42.908;23.800;2022-11-20T06:55:04;30.67;;;14.25;;
40471;SDS011;26174;42.908;23.800;2022-11-20T06:57:32;32.97;;;15.38;;
40471;SDS011;26174;42.908;23.800;2022-11-20T06:59:58;32.15;;;15.27;;
40471;SDS011;26174;42.908;23.800;2022-11-20T07:02:23;29.80;;;14.70;;
40471;SDS011;26174;42.908;23.800;2022-11-20T07:04:49;31.02;;;14.70;;
40471;SDS011;26174;42.908;23.800;2022-11-20T07:07:14;37.55;;;18.92;;
40471;SDS011;26174;42.908;23.800;2022-11-20T07:09:40;151.75;;;77.10;;
40471;SDS011;26174;42.908;23.800;2022-11-20T07:12:05;38.50;;;17.90;;
40471;SDS011;26174;42.908;23.800;2022-11-20T07:14:31;35.83;;;18.35;;
40471;SDS011;26174;42.908;23.800;2022-11-20T07:16:56;29.27;;;13.63;;
40471;SDS011;26174;42.908;23.800;2022-11-20T07:19:22;93.57;;;50.22;;
40471;SDS011;26174;42.908;23.800;2022-11-20T07:21:47;39.88;;;18.80;;
40471;SDS011;26174;42.908;23.800;2022-11-20T07:24:13;29.67;;;12.75;;
40471;SDS011;26174;42.908;23.800;2022-11-20T07:26:38;25.83;;;13.40;;
40471;SDS011;26174;42.908;23.800;2022-11-20T07:29:05;29.08;;;13.18;;
40471;SDS011;26174;42.908;23.800;2022-11-20T07:31:31;24.67;;;12.20;;
40471;SDS011;26174;42.908;23.800;2022-11-20T07:33:56;24.67;;;12.15;;
40471;SDS011;26174;42.908;23.800;2022-11-20T07:36:22;34.35;;;14.98;;
40471;SDS011;26174;42.908;23.800;2022-11-20T07:38:47;30.63;;;16.85;;
40471;SDS011;26174;42.908;23.800;2022-11-20T07:41:13;33.35;;;14.73;;
40471;SDS011;26174;42.908;23.800;2022-11-20T07:43:39;30.80;;;13.32;;
40471;SDS011;26174;42.908;23.800;2022-11-20T07:46:04;30.05;;;14.27;;
40471;SDS011;26174;42.908;23.800;2022-11-20T07:48:30;28.90;;;12.93;;
40471;SDS011;26174;42.908;23.800;2022-11-20T07:50:56;23.50;;;11.07;;
40471;SDS011;26174;42.908;23.800;2022-11-20T07:53:22;21.83;;;10.57;;
40471;SDS011;26174;42.908;23.800;2022-11-20T07:55:48;25.90;;;11.98;;
40471;SDS011;26174;42.908;23.800;2022-11-20T07:58:14;26.02;;;13.07;;
40471;SDS011;26174;42.908;23.800;2022-11-20T08:00:40;25.23;;;13.05;;
40471;SDS011;26174;42.908;23.800;2022-11-20T08:03:06;22.98;;;11.95;;
40471;SDS011;26174;42.908;23.800;2022-11-20T08:05:32;21.25;;;10.57;;
40471;SDS011;26174;42.908;23.800;2022-11-20T08:07:57;22.08;;;12.00;;
40471;SDS011;26174;42.908;23.800;2022-11-20T08:10:23;22.45;;;11.20;;
40471;SDS011;26174;42.908;23.800;2022-11-20T08:12:49;25.98;;;13.45;;
40471;SDS011;26174;42.908;23.800;2022-11-20T08:15:34;25.90;;;12.23;;
40471;SDS011;26174;42.908;23.800;2022-11-20T08:18:01;25.13;;;11.15;;
40471;SDS011;26174;42.908;23.800;2022-11-20T08:20:30;25.80;;;12.52;;
40471;SDS011;26174;42.908;23.800;2022-11-20T08:22:59;27.05;;;12.30;;
40471;SDS011;26174;42.908;23.800;2022-11-20T08:25:26;29.55;;;13.68;;
40471;SDS011;26174;42.908;23.800;2022-11-20T08:27:53;22.60;;;12.15;;
40471;SDS011;26174;42.908;23.800;2022-11-20T08:30:18;26.25;;;12.65;;
40471;SDS011;26174;42.908;23.800;2022-11-20T08:32:44;25.05;;;11.55;;
40471;SDS011;26174;42.908;23.800;2022-11-20T08:35:17;25.98;;;13.48;;
40471;SDS011;26174;42.908;23.800;2022-11-20T08:37:45;21.23;;;11.05;;
40471;SDS011;26174;42.908;23.800;2022-11-20T08:40:11;21.92;;;10.55;;
40471;SDS011;26174;42.908;23.800;2022-11-20T08:42:37;19.92;;;10.95;;
40471;SDS011;26174;42.908;23.800;2022-11-20T08:45:10;21.48;;;11.38;;
40471;SDS011;26174;42.908;23.800;2022-11-20T08:47:35;22.92;;;12.18;;
40471;SDS011;26174;42.908;23.800;2022-11-20T08:50:01;23.42;;;12.38;;
40471;SDS011;26174;42.908;23.800;2022-11-20T08:52:30;20.58;;;10.65;;
40471;SDS011;26174;42.908;23.800;2022-11-20T08:54:56;23.10;;;11.93;;
40471;SDS011;26174;42.908;23.800;2022-11-20T08:57:22;29.48;;;16.05;;
40471;SDS011;26174;42.908;23.800;2022-11-20T08:59:48;29.17;;;15.18;;
40471;SDS011;26174;42.908;23.800;2022-11-20T09:02:14;26.95;;;13.25;;
40471;SDS011;26174;42.908;23.800;2022-11-20T09:04:41;27.20;;;14.32;;
40471;SDS011;26174;42.908;23.800;2022-11-20T09:07:07;23.45;;;13.50;;
40471;SDS011;26174;42.908;23.800;2022-11-20T09:09:32;24.67;;;13.52;;
40471;SDS011;26174;42.908;23.800;2022-11-20T09:11:58;32.15;;;14.50;;
40471;SDS011;26174;42.908;23.800;2022-11-20T09:14:23;31.52;;;13.48;;
40471;SDS011;26174;42.908;23.800;2022-11-20T09:16:54;23.35;;;13.15;;
40471;SDS011;26174;42.908;23.800;2022-11-20T09:19:20;26.40;;;13.00;;
40471;SDS011;26174;42.908;23.800;2022-11-20T09:21:45;25.05;;;11.50;;
40471;SDS011;26174;42.908;23.800;2022-11-20T09:24:11;17.95;;;9.68;;
40471;SDS011;26174;42.908;23.800;2022-11-20T09:26:36;27.45;;;12.68;;
40471;SDS011;26174;42.908;23.800;2022-11-20T09:29:02;36.22;;;18.65;;
40471;SDS011;26174;42.908;23.800;2022-11-20T09:31:28;51.22;;;23.33;;
40471;SDS011;26174;42.908;23.800;2022-11-20T09:33:53;30.35;;;15.48;;
40471;SDS011;26174;42.908;23.800;2022-11-20T09:36:19;27.50;;;14.82;;
40471;SDS011;26174;42.908;23.800;2022-11-20T09:38:45;31.13;;;14.82;;
40471;SDS011;26174;42.908;23.800;2022-11-20T09:41:23;23.15;;;12.18;;
40471;SDS011;26174;42.908;23.800;2022-11-20T09:47:11;18.37;;;9.47;;
40471;SDS011;26174;42.908;23.800;2022-11-20T09:52:25;25.00;;;11.93;;
40471;SDS011;26174;42.908;23.800;2022-11-20T09:55:18;26.50;;;11.73;;
40471;SDS011;26174;42.908;23.800;2022-11-20T09:57:45;31.48;;;15.35;;
40471;SDS011;26174;42.908;23.800;2022-11-20T10:00:13;75.65;;;32.22;;
40471;SDS011;26174;42.908;23.800;2022-11-20T10:02:53;85.57;;;36.20;;
40471;SDS011;26174;42.908;23.800;2022-11-20T10:05:22;62.40;;;28.83;;
40471;SDS011;26174;42.908;23.800;2022-11-20T10:10:36;32.42;;;18.00;;
40471;SDS011;26174;42.908;23.800;2022-11-20T10:13:14;35.42;;;17.02;;
40471;SDS011;26174;42.908;23.800;2022-11-20T10:15:51;31.55;;;14.63;;
40471;SDS011;26174;42.908;23.800;2022-11-20T10:31:11;40.90;;;20.48;;
40471;SDS011;26174;42.908;23.800;2022-11-20T10:33:41;53.65;;;26.45;;
40471;SDS011;26174;42.908;23.800;2022-11-20T10:36:10;31.65;;;16.30;;
40471;SDS011;26174;42.908;23.800;2022-11-20T10:41:38;35.47;;;17.63;;
40471;SDS011;26174;42.908;23.800;2022-11-20T10:47:17;35.25;;;18.77;;
40471;SDS011;26174;42.908;23.800;2022-11-20T10:49:48;38.83;;;18.98;;
40471;SDS011;26174;42.908;23.800;2022-11-20T10:52:21;44.20;;;20.83;;
40471;SDS011;26174;42.908;23.800;2022-11-20T11:00:33;39.65;;;21.75;;
40471;SDS011;26174;42.908;23.800;2022-11-20T11:02:58;38.03;;;20.90;;
40471;SDS011;26174;42.908;23.800;2022-11-20T11:05:33;40.13;;;19.90;;
40471;SDS011;26174;42.908;23.800;2022-11-20T11:08:14;51.63;;;26.75;;
40471;SDS011;26174;42.908;23.800;2022-11-20T11:10:53;116.47;;;57.67;;
40471;SDS011;26174;42.908;23.800;2022-11-20T11:13:28;123.50;;;58.38;;
40471;SDS011;26174;42.908;23.800;2022-11-20T11:15:54;50.55;;;24.35;;
40471;SDS011;26174;42.908;23.800;2022-11-20T11:20:50;45.10;;;22.48;;
40471;SDS011;26174;42.908;23.800;2022-11-20T11:25:58;33.42;;;17.58;;
40471;SDS011;26174;42.908;23.800;2022-11-20T11:28:25;71.18;;;36.40;;
40471;SDS011;26174;42.908;23.800;2022-11-20T11:30:53;30.98;;;15.13;;
40471;SDS011;26174;42.908;23.800;2022-11-20T11:33:23;37.78;;;19.90;;
40471;SDS011;26174;42.908;23.800;2022-11-20T11:35:54;26.38;;;14.02;;
40471;SDS011;26174;42.908;23.800;2022-11-20T11:38:28;30.95;;;16.08;;
40471;SDS011;26174;42.908;23.800;2022-11-20T11:41:01;30.80;;;15.82;;
40471;SDS011;26174;42.908;23.800;2022-11-20T11:43:28;25.27;;;12.35;;
40471;SDS011;26174;42.908;23.800;2022-11-20T11:46:28;24.45;;;13.07;;
40471;SDS011;26174;42.908;23.800;2022-11-20T12:00:12;3.58;;;1.92;;
40471;SDS011;26174;42.908;23.800;2022-11-20T12:02:46;2.30;;;1.77;;
40471;SDS011;26174;42.908;23.800;2022-11-20T12:05:27;5.60;;;3.65;;
40471;SDS011;26174;42.908;23.800;2022-11-20T12:10:45;2.70;;;1.90;;
40471;SDS011;26174;42.908;23.800;2022-11-20T12:16:09;14.07;;;2.17;;
40471;SDS011;26174;42.908;23.800;2022-11-20T12:18:38;1.77;;;1.17;;
40471;SDS011;26174;42.908;23.800;2022-11-20T12:29:09;0.63;;;0.57;;
40471;SDS011;26174;42.908;23.800;2022-11-20T12:31:42;0.65;;;0.45;;
40471;SDS011;26174;42.908;23.800;2022-11-20T12:34:19;9.30;;;5.30;;
40471;SDS011;26174;42.908;23.800;2022-11-20T12:36:56;11.70;;;6.63;;
40471;SDS011;26174;42.908;23.800;2022-11-20T12:48:17;2.17;;;1.95;;
40471;SDS011;26174;42.908;23.800;2022-11-20T12:59:00;16.10;;;9.93;;
40471;SDS011;26174;42.908;23.800;2022-11-20T13:02:02;8.50;;;5.70;;
40471;SDS011;26174;42.908;23.800;2022-11-20T13:04:54;3.30;;;2.10;;
40471;SDS011;26174;42.908;23.800;2022-11-20T13:07:57;1.02;;;0.85;;
40471;SDS011;26174;42.908;23.800;2022-11-20T13:10:43;14.27;;;7.35;;
40471;SDS011;26174;42.908;23.800;2022-11-20T13:13:23;2.93;;;2.43;;
40471;SDS011;26174;42.908;23.800;2022-11-20T13:18:24;1.33;;;1.15;;
40471;SDS011;26174;42.908;23.800;2022-11-20T13:20:52;10.32;;;3.70;;
40471;SDS011;26174;42.908;23.800;2022-11-20T13:23:27;4.72;;;3.63;;
40471;SDS011;26174;42.908;23.800;2022-11-20T13:32:20;1.63;;;1.05;;
40471;SDS011;26174;42.908;23.800;2022-11-20T13:34:53;4.68;;;2.95;;
40471;SDS011;26174;42.908;23.800;2022-11-20T13:37:31;12.98;;;4.90;;
40471;SDS011;26174;42.908;23.800;2022-11-20T13:40:10;8.05;;;3.13;;
40471;SDS011;26174;42.908;23.800;2022-11-20T13:45:42;6.13;;;2.40;;
40471;SDS011;26174;42.908;23.800;2022-11-20T13:54:41;3.80;;;2.85;;
40471;SDS011;26174;42.908;23.800;2022-11-20T14:04:15;1.60;;;1.45;;
40471;SDS011;26174;42.908;23.800;2022-11-20T14:10:44;6.22;;;3.33;;
40471;SDS011;26174;42.908;23.800;2022-11-20T14:17:17;4.38;;;3.15;;
40471;SDS011;26174;42.908;23.800;2022-11-20T14:19:52;9.80;;;2.97;;
40471;SDS011;26174;42.908;23.800;2022-11-20T14:22:25;5.88;;;2.35;;
40471;SDS011;26174;42.908;23.800;2022-11-20T14:27:59;2.65;;;1.90;;
40471;SDS011;26174;42.908;23.800;2022-11-20T14:30:36;5.43;;;4.10;;
40471;SDS011;26174;42.908;23.800;2022-11-20T14:33:12;12.95;;;5.43;;
40471;SDS011;26174;42.908;23.800;2022-11-20T14:35:50;9.70;;;4.10;;
40471;SDS011;26174;42.908;23.800;2022-11-20T14:38:18;8.50;;;3.30;;
40471;SDS011;26174;42.908;23.800;2022-11-20T14:40:47;7.97;;;4.20;;
40471;SDS011;26174;42.908;23.800;2022-11-20T14:43:20;12.38;;;5.80;;
40471;SDS011;26174;42.908;23.800;2022-11-20T14:46:02;8.73;;;4.28;;
40471;SDS011;26174;42.908;23.800;2022-11-20T14:48:46;6.32;;;3.45;;
40471;SDS011;26174;42.908;23.800;2022-11-20T14:54:58;8.18;;;4.63;;
40471;SDS011;26174;42.908;23.800;2022-11-20T14:57:33;9.80;;;4.03;;
40471;SDS011;26174;42.908;23.800;2022-11-20T15:17:00;4.15;;;3.47;;
40471;SDS011;26174;42.908;23.800;2022-11-20T15:22:44;8.05;;;4.10;;
40471;SDS011;26174;42.908;23.800;2022-11-20T15:25:13;5.43;;;3.45;;
40471;SDS011;26174;42.908;23.800;2022-11-20T15:27:40;3.92;;;2.67;;
40471;SDS011;26174;42.908;23.800;2022-11-20T15:30:13;2.53;;;2.25;;
40471;SDS011;26174;42.908;23.800;2022-11-20T15:32:45;3.88;;;2.28;;
40471;SDS011;26174;42.908;23.800;2022-11-20T15:35:11;5.72;;;3.40;;
40471;SDS011;26174;42.908;23.800;2022-11-20T15:37:37;5.43;;;3.65;;
40471;SDS011;26174;42.908;23.800;2022-11-20T15:40:03;8.45;;;4.00;;
40471;SDS011;26174;42.908;23.800;2022-11-20T15:42:29;4.72;;;3.03;;
40471;SDS011;26174;42.908;23.800;2022-11-20T15:44:55;2.75;;;1.92;;
40471;SDS011;26174;42.908;23.800;2022-11-20T15:47:21;4.55;;;2.17;;
40471;SDS011;26174;42.908;23.800;2022-11-20T15:49:50;4.97;;;3.10;;
40471;SDS011;26174;42.908;23.800;2022-11-20T15:52:16;3.42;;;2.25;;
40471;SDS011;26174;42.908;23.800;2022-11-20T15:54:41;8.50;;;3.20;;
40471;SDS011;26174;42.908;23.800;2022-11-20T15:57:07;8.48;;;3.80;;
40471;SDS011;26174;42.908;23.800;2022-11-20T15:59:32;9.68;;;5.10;;
40471;SDS011;26174;42.908;23.800;2022-11-20T16:01:59;7.63;;;4.32;;
40471;SDS011;26174;42.908;23.800;2022-11-20T16:04:24;3.80;;;3.42;;
40471;SDS011;26174;42.908;23.800;2022-11-20T16:06:50;9.60;;;4.40;;
40471;SDS011;26174;42.908;23.800;2022-11-20T16:09:15;9.40;;;5.90;;
40471;SDS011;26174;42.908;23.800;2022-11-20T16:11:41;12.48;;;6.47;;
40471;SDS011;26174;42.908;23.800;2022-11-20T16:14:08;11.68;;;6.25;;
40471;SDS011;26174;42.908;23.800;2022-11-20T16:16:54;9.98;;;6.65;;
40471;SDS011;26174;42.908;23.800;2022-11-20T16:19:19;14.07;;;8.40;;
40471;SDS011;26174;42.908;23.800;2022-11-20T16:21:45;6.30;;;4.95;;
40471;SDS011;26174;42.908;23.800;2022-11-20T16:24:13;7.28;;;4.32;;
40471;SDS011;26174;42.908;23.800;2022-11-20T16:26:40;9.73;;;5.32;;
40471;SDS011;26174;42.908;23.800;2022-11-20T16:29:06;7.53;;;3.22;;
40471;SDS011;26174;42.908;23.800;2022-11-20T16:31:32;11.15;;;3.15;;
40471;SDS011;26174;42.908;23.800;2022-11-20T16:34:01;7.88;;;5.38;;
40471;SDS011;26174;42.908;23.800;2022-11-20T16:36:28;5.80;;;4.75;;
40471;SDS011;26174;42.908;23.800;2022-11-20T16:38:55;10.15;;;6.07;;
40471;SDS011;26174;42.908;23.800;2022-11-20T16:41:22;11.95;;;6.05;;
40471;SDS011;26174;42.908;23.800;2022-11-20T16:43:49;11.60;;;4.57;;
40471;SDS011;26174;42.908;23.800;2022-11-20T16:46:16;5.10;;;3.25;;
40471;SDS011;26174;42.908;23.800;2022-11-20T16:48:43;7.25;;;3.45;;
40471;SDS011;26174;42.908;23.800;2022-11-20T16:51:09;4.75;;;2.70;;
40471;SDS011;26174;42.908;23.800;2022-11-20T16:53:35;8.25;;;2.97;;
40471;SDS011;26174;42.908;23.800;2022-11-20T16:56:14;7.40;;;3.78;;
40471;SDS011;26174;42.908;23.800;2022-11-20T16:58:42;2.47;;;2.00;;
40471;SDS011;26174;42.908;23.800;2022-11-20T17:01:12;4.57;;;2.80;;
40471;SDS011;26174;42.908;23.800;2022-11-20T17:03:39;5.43;;;2.08;;